Terminal Aerodrome Forecast
Issued by NWS Wilmington, OH

Home | Current Version | Previous Version | Text Only | Print | Product List | Glossary On
Versions: 1 2 3 4 5 6 7 8 9 10 11 12 13 14 15 16 17 18
000
FTUS41 KILN 292339
TAFDAY
TAF
KDAY 292339Z 3000/3024 08010KT P6SM SCT100 BKN250
     FM301000 08010KT P6SM BKN050 OVC100
     FM301600 18014G26KT P6SM BKN070 OVC250
     FM302300 18010KT P6SM BKN070 OVC250=

USA.gov is the U.S. government's official web portal to all federal, state and local government web resources and services.